Time;durP1;ratioP1;P1;durP2;ratioP2;P2;SDS_P1;SDS_P2;PMS_P1;PMS_P2;Temp;Humidity;BMP_temperature;BMP_pressure;BME280_temperature;BME280_humidity;BME280_pressure;Samples;Min_cycle;Max_cycle;Signal;HPM_P1;HPM_P2
2023/04/06 00:01:21;;;;;;;;;;;5.50;77.80;;;;;;6122575;23;19912;-96
2023/04/06 00:03:48;;;;;;;;;;;5.60;78.40;;;;;;6123207;23;20236;-96
2023/04/06 00:06:15;;;;;;;;;;;5.70;78.50;;;;;;6123651;23;19913;-96
2023/04/06 00:08:43;;;;;;;;;;;5.70;77.80;;;;;;6122238;23;19905;-96
2023/04/06 00:11:09;;;;;;;;;;;5.80;76.20;;;;;;6121884;23;19905;-96
2023/04/06 00:13:35;;;;;;;;;;;5.70;76.90;;;;;;6122341;23;19953;-96
2023/04/06 00:16:05;;;;;;;;;;;5.70;77.90;;;;;;6121840;23;19911;-96
2023/04/06 00:18:34;;;;;;;;;;;5.70;77.60;;;;;;6124315;23;19906;-96
2023/04/06 00:21:04;;;;;;;;;;;5.60;76.50;;;;;;6124051;23;19950;-96
2023/04/06 00:23:31;;;;;;;;;;;5.50;75.10;;;;;;6124023;23;19909;-96
2023/04/06 00:25:58;;;;;;;;;;;5.40;74.60;;;;;;6123284;23;19905;-96
2023/04/06 00:28:26;;;;;;;;;;;5.30;74.90;;;;;;6099094;23;19916;-96
2023/04/06 00:30:55;;;;;;;;;;;5.10;75.30;;;;;;6122404;23;19928;-96
2023/04/06 00:33:25;;;;;;;;;;;5.00;75.00;;;;;;6122226;23;19905;-96
2023/04/06 00:35:51;;;;;;;;;;;4.90;74.30;;;;;;6119375;23;19905;-96
2023/04/06 00:38:17;;;;;;;;;;;4.90;74.50;;;;;;6121138;23;19995;-96
2023/04/06 00:40:44;;;;;;;;;;;5.00;73.90;;;;;;6119972;23;19905;-96
2023/04/06 00:43:14;;;;;;;;;;;4.90;73.40;;;;;;6121973;23;19909;-96
2023/04/06 00:45:42;;;;;;;;;;;4.90;74.60;;;;;;6122238;23;19906;-96
2023/04/06 00:48:10;;;;;;;;;;;4.80;75.00;;;;;;6121942;23;19960;-96
2023/04/06 00:50:36;;;;;;;;;;;4.70;75.40;;;;;;6122144;23;19912;-96
2023/04/06 00:53:04;;;;;;;;;;;4.60;76.50;;;;;;6122171;23;19905;-96
2023/04/06 00:55:35;;;;;;;;;;;4.50;76.70;;;;;;6121783;23;19912;-96
2023/04/06 00:58:03;;;;;;;;;;;4.60;75.60;;;;;;6122856;23;19905;-96
2023/04/06 01:00:32;;;;;;;;;;;4.60;76.10;;;;;;6123244;23;19913;-96
2023/04/06 01:03:00;;;;;;;;;;;4.50;74.30;;;;;;6123626;23;19928;-96
2023/04/06 01:05:55;;;;;;;;;;;4.40;77.20;;;;;;6122715;23;19937;-96
2023/04/06 01:11:10;;;;;;;;;;;4.50;76.80;;;;;;6093503;23;19945;-96
2023/04/06 01:13:43;;;;;;;;;;;4.50;75.70;;;;;;6092605;23;19906;-96
2023/04/06 01:16:11;;;;;;;;;;;4.50;71.80;;;;;;6068769;23;19910;-96
2023/04/06 01:18:43;;;;;;;;;;;4.50;70.30;;;;;;6067975;23;19913;-96
2023/04/06 01:21:15;;;;;;;;;;;4.50;68.60;;;;;;6070682;23;19889;-96
2023/04/06 01:23:47;;;;;;;;;;;4.40;69.60;;;;;;6082546;23;19914;-96
2023/04/06 01:26:15;;;;;;;;;;;4.40;69.20;;;;;;6068753;23;19958;-96
2023/04/06 01:28:52;;;;;;;;;;;4.40;68.50;;;;;;6092962;23;19917;-95
2023/04/06 01:31:20;;;;;;;;;;;4.30;68.60;;;;;;6068840;23;19941;-97
2023/04/06 01:33:47;;;;;;;;;;;4.30;69.30;;;;;;6067680;23;19912;-96
2023/04/06 01:36:16;;;;;;;;;;;4.20;70.20;;;;;;6067605;23;20362;-96
2023/04/06 01:38:42;;;;;;;;;;;4.20;69.80;;;;;;6067688;23;19912;-96
2023/04/06 01:41:10;;;;;;;;;;;3.90;69.90;;;;;;6067858;23;19951;-96
2023/04/06 01:43:36;;;;;;;;;;;3.80;71.30;;;;;;6062485;23;19909;-96
2023/04/06 01:46:02;;;;;;;;;;;3.60;71.90;;;;;;6059576;23;19912;-96
2023/04/06 01:48:27;;;;;;;;;;;3.60;72.20;;;;;;6082225;23;19909;-96
2023/04/06 01:50:54;;;;;;;;;;;3.60;71.70;;;;;;6061583;23;19905;-96
2023/04/06 01:53:20;;;;;;;;;;;3.70;72.20;;;;;;6088864;23;19953;-96
2023/04/06 01:55:46;;;;;;;;;;;3.70;72.20;;;;;;6143623;23;19905;-96
2023/04/06 01:58:14;;;;;;;;;;;3.60;72.80;;;;;;6120851;23;19896;-96
2023/04/06 02:00:41;;;;;;;;;;;3.60;72.30;;;;;;6119579;23;19941;-96
2023/04/06 02:03:08;;;;;;;;;;;3.60;71.90;;;;;;6119894;23;19901;-96
2023/04/06 02:05:37;;;;;;;;;;;3.50;71.70;;;;;;6121732;23;19912;-96
2023/04/06 02:08:05;;;;;;;;;;;3.40;72.20;;;;;;6121548;23;19890;-96
2023/04/06 02:10:33;;;;;;;;;;;3.30;73.00;;;;;;6122586;23;19906;-96
2023/04/06 02:13:00;;;;;;;;;;;3.20;74.60;;;;;;6121554;23;19932;-96
2023/04/06 02:15:27;;;;;;;;;;;3.10;74.90;;;;;;6121633;23;19980;-96
2023/04/06 02:17:59;;;;;;;;;;;3.00;74.80;;;;;;6122390;23;19957;-96
2023/04/06 02:20:25;;;;;;;;;;;3.00;75.70;;;;;;6108865;23;19911;-96
2023/04/06 02:22:51;;;;;;;;;;;3.00;75.40;;;;;;6112809;23;19910;-96
2023/04/06 02:25:21;;;;;;;;;;;3.00;75.60;;;;;;6119173;23;19934;-96
2023/04/06 02:27:47;;;;;;;;;;;3.00;75.20;;;;;;6120224;23;19905;-96
2023/04/06 02:30:13;;;;;;;;;;;3.00;74.80;;;;;;6115014;23;19913;-96
2023/04/06 02:32:39;;;;;;;;;;;2.90;74.90;;;;;;6112182;23;19912;-96
2023/04/06 02:35:05;;;;;;;;;;;2.80;74.90;;;;;;6112565;23;19912;-96
2023/04/06 02:37:30;;;;;;;;;;;2.80;75.20;;;;;;6113595;23;19905;-96
2023/04/06 02:39:56;;;;;;;;;;;2.70;75.60;;;;;;6114575;23;19912;-96
2023/04/06 02:42:22;;;;;;;;;;;2.50;76.40;;;;;;6114449;23;19916;-96
2023/04/06 02:44:48;;;;;;;;;;;2.50;76.20;;;;;;6116460;23;19909;-96
2023/04/06 02:47:14;;;;;;;;;;;2.50;75.80;;;;;;6117106;23;19953;-96
2023/04/06 02:49:41;;;;;;;;;;;2.60;75.40;;;;;;6119134;23;19912;-96
2023/04/06 02:52:07;;;;;;;;;;;2.70;75.30;;;;;;6118658;23;20375;-96
2023/04/06 02:54:33;;;;;;;;;;;2.70;73.80;;;;;;6116932;23;19910;-96
2023/04/06 02:57:00;;;;;;;;;;;2.80;73.80;;;;;;6117634;23;19909;-96
2023/04/06 02:59:27;;;;;;;;;;;2.80;74.40;;;;;;6118736;23;19912;-96
2023/04/06 03:01:54;;;;;;;;;;;2.70;74.00;;;;;;6123708;23;19960;-96
2023/04/06 03:04:22;;;;;;;;;;;2.80;73.50;;;;;;6149287;23;19905;-96
2023/04/06 03:06:48;;;;;;;;;;;2.70;73.00;;;;;;6121820;23;19908;-96
2023/04/06 03:09:14;;;;;;;;;;;2.80;73.50;;;;;;6121822;23;19921;-96
2023/04/06 03:11:40;;;;;;;;;;;2.80;73.40;;;;;;6121966;23;19905;-96
2023/04/06 03:14:06;;;;;;;;;;;2.90;73.20;;;;;;6120493;23;20275;-96
2023/04/06 03:16:32;;;;;;;;;;;2.90;72.00;;;;;;6120536;23;19936;-96
2023/04/06 03:18:57;;;;;;;;;;;2.90;71.10;;;;;;6121435;23;19927;-96
2023/04/06 03:21:23;;;;;;;;;;;2.90;70.40;;;;;;6148867;23;19904;-95
2023/04/06 03:23:50;;;;;;;;;;;2.90;70.60;;;;;;6148650;23;19945;-96
2023/04/06 03:26:16;;;;;;;;;;;2.90;70.70;;;;;;6122334;23;20300;-96
2023/04/06 03:28:42;;;;;;;;;;;2.90;70.40;;;;;;6145075;23;19905;-96
2023/04/06 03:31:09;;;;;;;;;;;2.90;71.00;;;;;;6147308;23;19935;-96
2023/04/06 03:33:35;;;;;;;;;;;3.00;70.90;;;;;;6122625;23;19905;-96
2023/04/06 03:36:01;;;;;;;;;;;3.00;70.50;;;;;;6122541;23;19909;-96
2023/04/06 03:38:27;;;;;;;;;;;3.00;69.90;;;;;;6121342;23;19913;-95
2023/04/06 03:40:52;;;;;;;;;;;3.00;69.60;;;;;;6123377;23;19905;-96
2023/04/06 03:43:18;;;;;;;;;;;3.10;70.00;;;;;;6120286;23;19913;-95
2023/04/06 03:45:44;;;;;;;;;;;3.10;70.50;;;;;;6120360;23;19905;-96
2023/04/06 03:48:10;;;;;;;;;;;3.10;70.50;;;;;;6122392;23;19945;-96
2023/04/06 03:50:36;;;;;;;;;;;3.10;71.20;;;;;;6149087;23;19905;-96
2023/04/06 03:53:02;;;;;;;;;;;3.10;71.70;;;;;;6123508;23;19928;-96
2023/04/06 03:55:29;;;;;;;;;;;3.00;71.10;;;;;;6149725;23;19912;-96
2023/04/06 03:57:55;;;;;;;;;;;2.90;72.40;;;;;;6125416;23;19941;-96
2023/04/06 04:00:21;;;;;;;;;;;2.90;73.10;;;;;;6124303;23;19905;-96
2023/04/06 04:02:47;;;;;;;;;;;3.00;73.00;;;;;;6147299;23;19920;-96
2023/04/06 04:05:13;;;;;;;;;;;3.00;72.90;;;;;;6123640;23;20390;-96
2023/04/06 04:07:40;;;;;;;;;;;3.00;72.50;;;;;;6124872;23;19889;-96
2023/04/06 04:10:06;;;;;;;;;;;3.00;72.80;;;;;;6123308;23;19905;-96
2023/04/06 04:12:32;;;;;;;;;;;3.00;72.50;;;;;;6123239;23;19905;-96
2023/04/06 04:14:58;;;;;;;;;;;3.00;73.20;;;;;;6123828;23;19912;-96
2023/04/06 04:17:24;;;;;;;;;;;2.90;73.30;;;;;;6123247;23;20402;-96
2023/04/06 04:19:51;;;;;;;;;;;3.00;73.20;;;;;;6123813;23;19906;-96
2023/04/06 04:22:17;;;;;;;;;;;2.90;73.10;;;;;;6122966;23;19936;-96
2023/04/06 04:24:43;;;;;;;;;;;2.80;73.20;;;;;;6147886;23;19909;-96
2023/04/06 04:27:09;;;;;;;;;;;2.80;73.10;;;;;;6121877;23;19905;-96
2023/04/06 04:29:34;;;;;;;;;;;2.80;72.20;;;;;;6121814;23;19905;-96
2023/04/06 04:32:00;;;;;;;;;;;2.70;72.10;;;;;;6123480;23;19905;-96
2023/04/06 04:34:28;;;;;;;;;;;2.90;72.30;;;;;;6124165;23;19905;-96
2023/04/06 04:36:54;;;;;;;;;;;3.00;72.50;;;;;;6123594;23;19929;-96
2023/04/06 04:39:20;;;;;;;;;;;3.00;72.70;;;;;;6149022;23;19912;-96
2023/04/06 04:41:47;;;;;;;;;;;3.00;72.40;;;;;;6150041;23;20255;-96
2023/04/06 04:44:15;;;;;;;;;;;2.90;72.50;;;;;;6152319;23;19932;-96
2023/04/06 04:46:43;;;;;;;;;;;2.90;72.40;;;;;;6128384;23;19936;-96
2023/04/06 04:49:12;;;;;;;;;;;3.10;73.20;;;;;;6128031;23;19905;-96
2023/04/06 04:51:39;;;;;;;;;;;3.10;74.70;;;;;;6128050;23;19920;-96
2023/04/06 04:54:06;;;;;;;;;;;3.20;72.40;;;;;;6127046;23;19912;-96
2023/04/06 04:56:33;;;;;;;;;;;3.00;73.40;;;;;;6127120;23;19944;-96
2023/04/06 04:58:59;;;;;;;;;;;3.10;73.30;;;;;;6152685;23;19905;-96
2023/04/06 05:01:27;;;;;;;;;;;3.20;73.10;;;;;;6122140;23;19913;-96
2023/04/06 05:03:55;;;;;;;;;;;3.20;72.90;;;;;;6122204;23;19910;-96
2023/04/06 05:06:22;;;;;;;;;;;3.20;74.90;;;;;;6122857;23;19897;-96
2023/04/06 05:08:57;;;;;;;;;;;3.20;74.00;;;;;;6123057;23;19889;-96
2023/04/06 05:11:25;;;;;;;;;;;3.20;72.80;;;;;;6122635;23;19957;-95
2023/04/06 05:13:52;;;;;;;;;;;3.20;72.60;;;;;;6123538;23;19937;-96
2023/04/06 05:16:19;;;;;;;;;;;3.30;72.00;;;;;;6123626;23;19905;-96
2023/04/06 05:18:50;;;;;;;;;;;3.40;72.80;;;;;;6124453;23;19913;-96
2023/04/06 05:21:18;;;;;;;;;;;3.50;72.30;;;;;;6122651;23;19928;-96
2023/04/06 05:23:46;;;;;;;;;;;3.50;71.20;;;;;;6122842;23;19901;-96
2023/04/06 05:26:14;;;;;;;;;;;3.50;71.50;;;;;;6123545;23;19905;-96
2023/04/06 05:28:52;;;;;;;;;;;3.50;71.70;;;;;;6124269;23;19914;-96
2023/04/06 05:31:29;;;;;;;;;;;3.60;71.40;;;;;;6123129;23;19905;-96
2023/04/06 05:33:58;;;;;;;;;;;3.60;70.90;;;;;;6122891;23;19889;-96
2023/04/06 05:36:25;;;;;;;;;;;3.50;71.70;;;;;;6123142;23;19995;-96
2023/04/06 05:38:56;;;;;;;;;;;3.50;72.10;;;;;;6122474;23;19893;-96
2023/04/06 05:41:25;;;;;;;;;;;3.50;71.50;;;;;;6123745;23;19909;-96
2023/04/06 05:44:07;;;;;;;;;;;3.50;72.20;;;;;;6123861;23;19912;-96
2023/04/06 05:46:34;;;;;;;;;;;3.50;72.20;;;;;;6124531;23;19906;-96
2023/04/06 05:49:03;;;;;;;;;;;3.70;71.80;;;;;;6123462;23;19906;-96
2023/04/06 05:51:41;;;;;;;;;;;3.90;71.90;;;;;;6124108;23;19900;-96
2023/04/06 05:54:30;;;;;;;;;;;4.00;71.30;;;;;;6124709;23;19957;-96
2023/04/06 05:57:07;;;;;;;;;;;4.10;70.40;;;;;;6124597;23;19909;-96
2023/04/06 06:17:25;;;;;;;;;;;5.30;67.30;;;;;;6174579;23;19955;-96
2023/04/06 06:19:58;;;;;;;;;;;5.50;68.10;;;;;;6182937;23;19892;-96
2023/04/06 06:22:30;;;;;;;;;;;5.70;68.10;;;;;;6158555;23;19913;-96
2023/04/06 06:58:36;;;;;;;;;;;7.50;60.50;;;;;;6178871;23;19920;-96
2023/04/06 07:01:02;;;;;;;;;;;7.50;58.00;;;;;;6183289;23;19927;-96
2023/04/06 07:03:30;;;;;;;;;;;7.60;57.90;;;;;;6158935;23;19917;-96
2023/04/06 07:05:58;;;;;;;;;;;7.60;58.00;;;;;;6159760;23;19909;-96
2023/04/06 13:41:59;;;;;;;;;;;18.90;29.90;;;;;;6172250;23;19927;-96
2023/04/06 13:44:25;;;;;;;;;;;18.30;29.10;;;;;;6155184;23;19932;-96
2023/04/06 13:47:20;;;;;;;;;;;18.40;31.60;;;;;;6156492;23;19904;-96
2023/04/06 14:00:21;;;;;;;;;;;18.90;30.30;;;;;;6173474;23;19928;-96
2023/04/06 14:03:12;;;;;;;;;;;18.90;31.40;;;;;;6181625;23;19936;-96
2023/04/06 14:10:52;;;;;;;;;;;19.10;29.80;;;;;;6159931;23;19931;-96
2023/04/06 14:36:49;;;;;;;;;;;19.20;29.60;;;;;;6163945;23;19944;-96
2023/04/06 14:44:26;;;;;;;;;;;19.10;29.50;;;;;;6163024;23;19913;-96
2023/04/06 14:46:52;;;;;;;;;;;19.10;30.40;;;;;;6143752;23;19943;-96
2023/04/06 14:49:17;;;;;;;;;;;19.10;30.10;;;;;;6162520;23;19911;-96
2023/04/06 14:51:43;;;;;;;;;;;18.70;32.00;;;;;;6158665;23;19911;-96
2023/04/06 14:54:09;;;;;;;;;;;18.60;30.90;;;;;;6167263;23;19904;-96
2023/04/06 14:56:38;;;;;;;;;;;18.60;30.30;;;;;;6148895;23;19932;-96
2023/04/06 14:59:04;;;;;;;;;;;18.50;31.20;;;;;;6117289;23;19909;-95
2023/04/06 15:01:33;;;;;;;;;;;18.40;30.70;;;;;;6157996;23;19915;-95
2023/04/06 15:03:59;;;;;;;;;;;18.50;31.10;;;;;;6137132;23;20250;-96
2023/04/06 15:06:25;;;;;;;;;;;18.40;30.30;;;;;;6157570;23;19912;-96
2023/04/06 15:08:51;;;;;;;;;;;18.70;31.10;;;;;;6157330;23;19912;-96
2023/04/06 15:11:16;;;;;;;;;;;18.60;31.60;;;;;;6160748;23;19920;-96
2023/04/06 15:13:42;;;;;;;;;;;18.40;29.90;;;;;;6170864;23;19912;-96
2023/04/06 15:16:09;;;;;;;;;;;18.60;31.50;;;;;;6152586;23;19928;-96
2023/04/06 15:18:35;;;;;;;;;;;18.80;29.90;;;;;;6148361;23;19904;-96
2023/04/06 15:21:01;;;;;;;;;;;19.00;29.60;;;;;;6139926;23;19933;-96
2023/04/06 15:23:29;;;;;;;;;;;19.10;30.30;;;;;;6163926;23;20234;-96
2023/04/06 15:25:55;;;;;;;;;;;19.00;30.00;;;;;;6166514;23;19905;-96
2023/04/06 15:28:20;;;;;;;;;;;19.20;30.00;;;;;;6138362;23;19905;-96
2023/04/06 15:30:46;;;;;;;;;;;19.10;30.60;;;;;;6136176;23;19979;-95
2023/04/06 15:33:11;;;;;;;;;;;19.00;30.20;;;;;;6159370;23;20238;-96
2023/04/06 15:35:39;;;;;;;;;;;18.70;30.60;;;;;;6158945;23;19905;-95
2023/04/06 15:38:06;;;;;;;;;;;18.60;29.90;;;;;;6158908;23;19979;-96
2023/04/06 15:40:32;;;;;;;;;;;18.60;31.50;;;;;;6158307;23;19909;-95
2023/04/06 15:42:57;;;;;;;;;;;18.50;31.50;;;;;;6158440;23;19963;-95
2023/04/06 15:45:23;;;;;;;;;;;18.30;30.70;;;;;;6158137;23;20243;-94
2023/04/06 15:47:48;;;;;;;;;;;18.00;30.90;;;;;;6158476;23;19904;-96
2023/04/06 15:50:14;;;;;;;;;;;17.80;31.30;;;;;;6158491;23;19912;-94
2023/04/06 15:52:40;;;;;;;;;;;17.60;31.40;;;;;;6158093;23;19904;-95
2023/04/06 15:55:06;;;;;;;;;;;17.50;31.90;;;;;;6158284;23;20323;-95
2023/04/06 15:57:32;;;;;;;;;;;17.60;32.70;;;;;;6158318;23;19904;-95
2023/04/06 15:59:58;;;;;;;;;;;17.70;32.70;;;;;;6158401;23;19905;-96
2023/04/06 16:02:24;;;;;;;;;;;17.50;32.80;;;;;;6157943;23;20353;-95
2023/04/06 16:05:02;;;;;;;;;;;17.20;31.10;;;;;;6158887;23;19943;-95
2023/04/06 16:07:28;;;;;;;;;;;16.80;32.40;;;;;;6158601;23;19905;-95
2023/04/06 16:09:54;;;;;;;;;;;16.60;34.50;;;;;;6157978;23;20246;-95
2023/04/06 16:12:20;;;;;;;;;;;16.50;35.10;;;;;;6157908;23;19950;-95
2023/04/06 16:14:45;;;;;;;;;;;16.70;34.70;;;;;;6158575;23;19954;-95
2023/04/06 16:17:12;;;;;;;;;;;16.70;34.60;;;;;;6158179;23;19905;-95
2023/04/06 16:19:37;;;;;;;;;;;16.60;34.60;;;;;;6158072;23;19983;-95
2023/04/06 16:22:03;;;;;;;;;;;16.40;34.40;;;;;;6158097;23;19947;-96
2023/04/06 16:24:29;;;;;;;;;;;16.30;35.00;;;;;;6133096;23;19904;-96
2023/04/06 16:26:56;;;;;;;;;;;16.00;34.50;;;;;;6159222;23;19905;-96
2023/04/06 16:29:21;;;;;;;;;;;15.70;36.30;;;;;;6158896;23;19943;-96
2023/04/06 16:31:47;;;;;;;;;;;15.40;37.30;;;;;;6159076;23;19904;-95
2023/04/06 16:34:13;;;;;;;;;;;15.20;37.90;;;;;;6158952;23;19981;-94
2023/04/06 16:36:41;;;;;;;;;;;15.00;37.30;;;;;;6132238;23;20346;-95
2023/04/06 16:39:07;;;;;;;;;;;14.90;38.00;;;;;;6159613;23;19915;-96
2023/04/06 16:41:33;;;;;;;;;;;14.70;38.00;;;;;;6158911;23;20227;-95
2023/04/06 16:43:59;;;;;;;;;;;14.60;39.10;;;;;;6127584;23;19979;-95
2023/04/06 16:46:29;;;;;;;;;;;14.50;38.90;;;;;;6129558;23;20323;-95
2023/04/06 16:48:55;;;;;;;;;;;14.40;38.90;;;;;;6129380;23;20329;-96
2023/04/06 16:51:22;;;;;;;;;;;14.40;40.50;;;;;;6128111;23;20426;-96
2023/04/06 16:53:48;;;;;;;;;;;14.30;39.20;;;;;;6127321;23;19911;-96
2023/04/06 16:56:13;;;;;;;;;;;14.20;40.40;;;;;;6128998;23;20234;-95
2023/04/06 16:58:39;;;;;;;;;;;14.10;40.70;;;;;;6129308;23;20235;-96
2023/04/06 17:01:04;;;;;;;;;;;14.00;40.30;;;;;;6129682;23;20290;-96
2023/04/06 17:03:31;;;;;;;;;;;14.00;41.00;;;;;;6129135;23;20391;-96
2023/04/06 17:05:57;;;;;;;;;;;14.00;40.40;;;;;;6129576;23;19912;-96
2023/04/06 17:08:22;;;;;;;;;;;14.10;40.50;;;;;;6129628;23;19905;-94
2023/04/06 17:10:48;;;;;;;;;;;14.10;40.20;;;;;;6128637;23;19956;-96
2023/04/06 17:13:14;;;;;;;;;;;14.10;41.10;;;;;;6129317;23;19905;-95
2023/04/06 17:15:41;;;;;;;;;;;14.00;40.50;;;;;;6127328;23;20019;-95
2023/04/06 17:18:07;;;;;;;;;;;14.00;40.20;;;;;;6129497;23;19909;-96
2023/04/06 17:20:34;;;;;;;;;;;13.90;40.80;;;;;;6128821;23;19976;-95
2023/04/06 17:22:59;;;;;;;;;;;13.90;40.50;;;;;;6129503;23;19912;-96
2023/04/06 17:25:25;;;;;;;;;;;13.90;40.20;;;;;;6129043;23;19905;-95
2023/04/06 17:27:50;;;;;;;;;;;13.80;40.20;;;;;;6129378;23;19905;-96
2023/04/06 17:30:16;;;;;;;;;;;13.70;40.30;;;;;;6129792;23;19905;-95
2023/04/06 17:32:42;;;;;;;;;;;13.70;41.20;;;;;;6130141;23;20275;-95
2023/04/06 17:35:10;;;;;;;;;;;13.70;40.00;;;;;;6129743;23;19905;-95
2023/04/06 17:37:36;;;;;;;;;;;13.60;40.00;;;;;;6128862;23;19956;-95
2023/04/06 17:40:03;;;;;;;;;;;13.60;40.00;;;;;;6129266;23;19905;-95
2023/04/06 17:42:28;;;;;;;;;;;13.60;39.80;;;;;;6129568;23;19909;-96
2023/04/06 17:44:54;;;;;;;;;;;13.60;40.90;;;;;;6151785;23;19951;-95
2023/04/06 17:47:20;;;;;;;;;;;13.50;41.70;;;;;;6160353;23;19909;-95
2023/04/06 17:49:45;;;;;;;;;;;13.40;40.70;;;;;;6160847;23;19905;-95
2023/04/06 17:52:11;;;;;;;;;;;13.40;40.40;;;;;;6161729;23;19928;-95
2023/04/06 17:54:36;;;;;;;;;;;13.40;40.90;;;;;;6162730;23;19904;-96
2023/04/06 17:57:02;;;;;;;;;;;13.30;40.10;;;;;;6136290;23;19983;-95
2023/04/06 17:59:28;;;;;;;;;;;13.30;40.60;;;;;;6161914;23;19904;-96
2023/04/06 18:01:54;;;;;;;;;;;13.30;41.40;;;;;;6136088;23;20269;-95
2023/04/06 18:04:20;;;;;;;;;;;13.30;40.90;;;;;;6162723;23;19911;-95
2023/04/06 18:06:45;;;;;;;;;;;13.30;41.30;;;;;;6162505;23;19905;-96
2023/04/06 18:09:11;;;;;;;;;;;13.20;40.30;;;;;;6161169;23;19909;-96
2023/04/06 18:11:36;;;;;;;;;;;13.10;40.80;;;;;;6159350;23;19959;-96
2023/04/06 18:14:09;;;;;;;;;;;13.00;40.40;;;;;;6160515;23;20239;-95
2023/04/06 18:16:35;;;;;;;;;;;12.90;41.20;;;;;;6160199;23;20307;-96
2023/04/06 18:19:01;;;;;;;;;;;12.90;41.90;;;;;;6160095;23;19911;-96
2023/04/06 18:21:27;;;;;;;;;;;12.90;41.50;;;;;;6133940;23;19928;-96
2023/04/06 18:23:53;;;;;;;;;;;12.80;41.10;;;;;;6159895;23;19916;-96
2023/04/06 18:26:20;;;;;;;;;;;12.80;42.20;;;;;;6159626;23;20281;-96
2023/04/06 18:28:45;;;;;;;;;;;12.80;41.70;;;;;;6160396;23;19904;-95
2023/04/06 18:31:11;;;;;;;;;;;12.70;44.70;;;;;;6160080;23;20212;-95
2023/04/06 18:33:37;;;;;;;;;;;12.70;45.70;;;;;;6159910;23;19908;-95
2023/04/06 18:36:02;;;;;;;;;;;12.60;48.10;;;;;;6159762;23;19905;-95
2023/04/06 18:38:28;;;;;;;;;;;12.50;47.20;;;;;;6159131;23;19904;-95
2023/04/06 18:40:54;;;;;;;;;;;12.40;46.00;;;;;;6158438;23;20443;-95
2023/04/06 18:43:19;;;;;;;;;;;12.40;45.10;;;;;;6157938;23;19980;-96
2023/04/06 18:45:45;;;;;;;;;;;12.40;44.60;;;;;;6159505;23;19909;-95
2023/04/06 18:48:12;;;;;;;;;;;12.40;46.80;;;;;;6158721;23;19904;-95
2023/04/06 18:50:38;;;;;;;;;;;12.30;46.60;;;;;;6160656;23;19908;-95
2023/04/06 18:53:03;;;;;;;;;;;12.10;47.40;;;;;;6160857;23;20323;-96
2023/04/06 18:55:32;;;;;;;;;;;12.00;47.50;;;;;;6161233;23;19908;-96
2023/04/06 18:57:57;;;;;;;;;;;11.90;47.60;;;;;;6160523;23;19915;-95
2023/04/06 19:00:23;;;;;;;;;;;11.90;47.70;;;;;;6160337;23;19905;-95
2023/04/06 19:02:49;;;;;;;;;;;11.90;48.00;;;;;;6160241;23;19999;-95
2023/04/06 19:05:15;;;;;;;;;;;11.90;48.60;;;;;;6160717;23;20012;-94
2023/04/06 19:07:41;;;;;;;;;;;11.80;50.30;;;;;;6160593;23;20336;-95
2023/04/06 19:10:07;;;;;;;;;;;11.70;52.30;;;;;;6160109;23;19905;-96
2023/04/06 19:12:35;;;;;;;;;;;11.50;53.80;;;;;;6160072;23;19996;-95
2023/04/06 19:15:05;;;;;;;;;;;11.40;55.00;;;;;;6160393;23;19905;-94
2023/04/06 19:17:31;;;;;;;;;;;11.30;56.10;;;;;;6160572;23;19912;-95
2023/04/06 19:19:56;;;;;;;;;;;11.10;57.00;;;;;;6161622;23;19905;-95
2023/04/06 19:22:22;;;;;;;;;;;11.10;57.60;;;;;;6160268;23;19916;-95
2023/04/06 19:24:48;;;;;;;;;;;10.90;56.90;;;;;;6161593;23;19956;-95
2023/04/06 19:27:14;;;;;;;;;;;10.90;57.80;;;;;;6160435;23;19979;-95
2023/04/06 19:29:39;;;;;;;;;;;10.80;58.20;;;;;;6160928;23;19904;-96
2023/04/06 19:32:06;;;;;;;;;;;10.80;58.30;;;;;;6160422;23;20263;-95
2023/04/06 19:34:32;;;;;;;;;;;10.70;59.10;;;;;;6134367;23;19904;-95
2023/04/06 19:36:58;;;;;;;;;;;10.70;60.30;;;;;;6160444;23;19909;-96
2023/04/06 19:39:25;;;;;;;;;;;10.60;61.60;;;;;;6160386;23;19952;-95
2023/04/06 19:41:50;;;;;;;;;;;10.70;61.20;;;;;;6160449;23;19904;-95
2023/04/06 19:44:16;;;;;;;;;;;10.80;61.30;;;;;;6159783;23;20290;-95
2023/04/06 19:46:45;;;;;;;;;;;10.80;61.40;;;;;;6160252;23;19905;-95
2023/04/06 19:49:11;;;;;;;;;;;10.70;62.00;;;;;;6159508;23;19928;-96
2023/04/06 19:51:36;;;;;;;;;;;10.70;62.80;;;;;;6160084;23;19904;-94
2023/04/06 19:54:03;;;;;;;;;;;10.60;63.40;;;;;;6159569;23;19943;-95
2023/04/06 19:56:30;;;;;;;;;;;10.50;63.80;;;;;;6159735;23;19909;-95
2023/04/06 19:58:56;;;;;;;;;;;10.50;64.60;;;;;;6159993;23;19905;-94
2023/04/06 20:01:22;;;;;;;;;;;10.40;65.30;;;;;;6158530;23;19911;-95
2023/04/06 20:03:47;;;;;;;;;;;10.40;65.10;;;;;;6158953;23;19919;-95
2023/04/06 20:06:13;;;;;;;;;;;10.40;65.30;;;;;;6133119;23;19932;-95
2023/04/06 20:08:39;;;;;;;;;;;10.30;65.60;;;;;;6159460;23;19916;-95
2023/04/06 20:11:06;;;;;;;;;;;10.20;66.00;;;;;;6158803;23;19904;-95
2023/04/06 20:13:32;;;;;;;;;;;10.00;66.80;;;;;;6132158;23;20318;-96
2023/04/06 20:15:57;;;;;;;;;;;9.90;67.60;;;;;;6159183;23;19915;-94
2023/04/06 20:18:23;;;;;;;;;;;9.70;68.30;;;;;;6132326;23;19905;-95
2023/04/06 20:20:49;;;;;;;;;;;9.60;68.80;;;;;;6158632;23;19908;-94
2023/04/06 20:23:15;;;;;;;;;;;9.40;69.00;;;;;;6158179;23;19915;-95
2023/04/06 20:25:40;;;;;;;;;;;9.30;69.80;;;;;;6158534;23;19905;-95
2023/04/06 20:28:07;;;;;;;;;;;9.20;70.30;;;;;;6157961;23;19905;-95
2023/04/06 20:30:33;;;;;;;;;;;9.20;71.00;;;;;;6158282;23;20311;-94
2023/04/06 20:32:59;;;;;;;;;;;9.20;71.00;;;;;;6158236;23;20009;-95
2023/04/06 20:35:24;;;;;;;;;;;9.30;71.20;;;;;;6158783;23;19911;-95
2023/04/06 20:37:50;;;;;;;;;;;9.20;71.30;;;;;;6158244;23;19954;-96
2023/04/06 20:40:15;;;;;;;;;;;9.20;71.30;;;;;;6158519;23;20238;-94
2023/04/06 20:42:41;;;;;;;;;;;9.10;71.90;;;;;;6158425;23;19908;-94
2023/04/06 20:45:07;;;;;;;;;;;9.10;71.90;;;;;;6158139;23;19996;-94
2023/04/06 20:47:32;;;;;;;;;;;9.10;72.20;;;;;;6158663;23;19948;-94
2023/04/06 20:49:58;;;;;;;;;;;9.10;71.90;;;;;;6158719;23;19924;-95
2023/04/06 20:52:24;;;;;;;;;;;9.20;71.70;;;;;;6158735;23;19905;-95
2023/04/06 20:54:49;;;;;;;;;;;9.10;71.80;;;;;;6158047;23;20238;-95
2023/04/06 20:57:15;;;;;;;;;;;9.00;71.80;;;;;;6158627;23;19912;-95
2023/04/06 20:59:41;;;;;;;;;;;8.90;74.00;;;;;;6158398;23;19905;-95
2023/04/06 21:02:06;;;;;;;;;;;8.80;74.20;;;;;;6157651;23;19904;-94
2023/04/06 21:04:35;;;;;;;;;;;8.80;74.60;;;;;;6157909;23;20320;-95
2023/04/06 21:07:07;;;;;;;;;;;8.60;75.10;;;;;;6157864;23;19909;-95
2023/04/06 21:09:34;;;;;;;;;;;8.60;75.00;;;;;;6157692;23;19951;-95
2023/04/06 21:11:59;;;;;;;;;;;8.60;74.20;;;;;;6158142;23;19931;-94
2023/04/06 21:14:25;;;;;;;;;;;8.60;74.00;;;;;;6157326;23;19939;-95
2023/04/06 21:16:51;;;;;;;;;;;8.60;73.90;;;;;;6157780;23;20334;-95
2023/04/06 21:19:16;;;;;;;;;;;8.50;74.00;;;;;;6157465;23;20331;-95
2023/04/06 21:21:42;;;;;;;;;;;8.60;74.40;;;;;;6157645;23;19905;-95
2023/04/06 21:24:07;;;;;;;;;;;8.60;74.90;;;;;;6157164;23;19913;-94
2023/04/06 21:26:33;;;;;;;;;;;8.50;75.10;;;;;;6157891;23;19904;-95
2023/04/06 21:28:59;;;;;;;;;;;8.40;74.80;;;;;;6157181;23;19928;-94
2023/04/06 21:31:25;;;;;;;;;;;8.30;75.40;;;;;;6157426;23;20323;-95
2023/04/06 21:33:51;;;;;;;;;;;8.30;75.70;;;;;;6157950;23;20279;-95
2023/04/06 21:36:16;;;;;;;;;;;8.30;76.00;;;;;;6157559;23;20208;-94
2023/04/06 21:38:42;;;;;;;;;;;8.20;76.70;;;;;;6157464;23;20323;-95
2023/04/06 21:41:07;;;;;;;;;;;8.20;76.70;;;;;;6157596;23;19909;-95
2023/04/06 21:43:33;;;;;;;;;;;8.30;75.90;;;;;;6157153;23;19971;-95
2023/04/06 21:45:58;;;;;;;;;;;8.40;75.60;;;;;;6157120;23;19904;-95
2023/04/06 21:48:24;;;;;;;;;;;8.40;75.30;;;;;;6157511;23;19936;-95
2023/04/06 21:50:50;;;;;;;;;;;8.40;75.30;;;;;;6156995;23;19904;-95
2023/04/06 21:53:15;;;;;;;;;;;8.40;75.00;;;;;;6157203;23;19905;-95
2023/04/06 21:55:45;;;;;;;;;;;8.40;74.90;;;;;;6156843;23;20319;-95
2023/04/06 21:58:11;;;;;;;;;;;8.30;75.00;;;;;;6157217;23;20323;-94
2023/04/06 22:00:37;;;;;;;;;;;8.20;75.20;;;;;;6157131;23;19904;-94
2023/04/06 22:03:02;;;;;;;;;;;8.20;75.10;;;;;;6156720;23;19916;-94
2023/04/06 22:05:28;;;;;;;;;;;8.20;75.60;;;;;;6157636;23;19909;-94
2023/04/06 22:07:53;;;;;;;;;;;8.20;74.60;;;;;;6157159;23;19911;-94
2023/04/06 22:10:19;;;;;;;;;;;8.30;74.80;;;;;;6157338;23;19991;-94
2023/04/06 22:12:44;;;;;;;;;;;8.40;74.20;;;;;;6157162;23;19988;-95
2023/04/06 22:15:11;;;;;;;;;;;8.40;74.40;;;;;;6157251;23;19912;-96
2023/04/06 22:17:36;;;;;;;;;;;8.40;74.20;;;;;;6157042;23;19904;-95
2023/04/06 22:20:02;;;;;;;;;;;8.20;73.90;;;;;;6157358;23;20307;-96
2023/04/06 22:22:28;;;;;;;;;;;8.20;74.20;;;;;;6157554;23;19919;-94
2023/04/06 22:24:53;;;;;;;;;;;8.20;74.40;;;;;;6159192;23;19911;-96
2023/04/06 22:27:19;;;;;;;;;;;8.10;74.60;;;;;;6159900;23;19905;-95
2023/04/06 22:29:44;;;;;;;;;;;8.00;75.30;;;;;;6159399;23;20323;-94
2023/04/06 22:32:10;;;;;;;;;;;7.90;75.50;;;;;;6159560;23;20328;-95
2023/04/06 22:34:35;;;;;;;;;;;7.80;75.80;;;;;;6159263;23;20239;-95